Tuesday, January 16, 2018, 5:26 PM GMT
Back to Local

CWSD, Summerside Automatic Weather Reporting System

Location: , , Canada Lat: 46.433
Local Time: 5:26 PM GMT (17:26 GMT) Lon: -63.85
Time Zone: GMT Elev: 78 ft

Show me the last for .
Show Coded

Time T Td Feel RH Dir Speed Gust Alt SLP Vis Weather Sky Remarks
2018-01-16 17:00 22 20 9 93 350° 14 - - 30.37 0 None
2018-01-16 16:00 23 21 10 92 10° 15 - - 30.39 0 None
2018-01-16 15:00 25 22 13 89 10° 14 - - 30.41 0 None
2018-01-16 14:00 24 20 13 83 30° 12 - - 30.42 0 None
2018-01-16 13:00 24 20 12 82 30° 13 - - 30.42 0 Peak wind: 21 mph (19 kts) from 30° at 17 min
2018-01-16 12:00 24 20 10 86 40° 16 - - 30.38 0 Peak wind: 21 mph (19 kts) from 40° at 49 min
2018-01-16 11:00 23 21 10 89 30° 16 - - 30.40 0 Peak wind: 21 mph (19 kts) from 30° at 26 min
2018-01-16 10:00 23 22 9 94 40° 17 - - 30.40 0 Peak wind: 24 mph (21 kts) from 50° at 12 min
1-hr Precip Total: 0.01"
2018-01-16 09:00 23 21 8 93 40° 18 - - 30.41 0 Peak wind: 25 mph (22 kts) from 40° at 15 min
2018-01-16 08:00 23 20 9 86 30° 20 - - 30.43 0 Peak wind: 26 mph (23 kts) from 30° at 07 min
2018-01-16 07:00 23 19 9 85 40° 18 - - 30.45 0 Peak wind: 27 mph (24 kts) from 40° at 18 min
2018-01-16 06:00 22 19 6 86 40° 18 24 - 30.47 0 Peak wind: 26 mph (23 kts) from 50° at 09 min
2018-01-16 05:00 22 19 4 87 50° 22 28 - 30.50 0 Peak wind: 29 mph (26 kts) from 50° at 02 min
2018-01-16 04:00 21 18 4 87 50° 24 - - 30.50 0 Peak wind: 32 mph (28 kts) from 60° at 46 min
Pressure falling rapidly
2018-01-16 02:00 20 16 5 84 50° 20 - - 30.64 0 Peak wind: 27 mph (24 kts) from 60° at 04 min
2018-01-16 01:00 20 15 2 82 60° 21 26 - 30.67 0 Peak wind: 26 mph (23 kts) from 60° at 59 min
2018-01-15 23:00 19 15 3 83 50° 20 - - 30.72 0 Peak wind: 25 mph (22 kts) from 50° at 57 min
2018-01-15 22:00 18 14 0 83 60° 20 25 - 30.76 0 Peak wind: 26 mph (23 kts) from 50° at 46 min
2018-01-15 21:00 18 13 2 82 50° 20 - - 30.76 0 Peak wind: 27 mph (24 kts) from 50° at 15 min
2018-01-15 20:00 18 15 2 84 50° 21 - - 30.77 0 Peak wind: 25 mph (22 kts) from 60° at 13 min
2018-01-15 19:00 20 15 3 78 60° 18 24 - 30.78 0 Peak wind: 26 mph (23 kts) from 50° at 18 min
2018-01-15 18:00 19 14 3 81 50° 18 - - 30.79 0 Peak wind: 25 mph (22 kts) from 60° at 39 min

Support USWX by starting your Amazon purchase here.